Weather History for Prairie Du Chien, WI

Change the Weather History Date:

Friday, May 24, 2013

  Actual Average Record
Temperature  
Mean Temperature 52 °F -  
Max Temperature 65 °F 73 °F 89 °F (1972)
Min Temperature 40 °F 51 °F 37 °F (1963)
Degree Days  
Heating Degree Days 12    
Growing Degree Days 2 (Base 50)    
Moisture  
Dew Point 40 °F    
Average Humidity 63    
Maximum Humidity 94    
Minimum Humidity 31    
Precipitation  
Precipitation 0.01 in - - ()
Sea Level Pressure  
Sea Level Pressure 30.35 in    
Wind  
Wind Speed 3 mph (ESE)    
Max Wind Speed 9 mph    
Max Gust Speed -    
Visibility 10 miles    
Events Rain    
Averages and records for this station are not official NWS values.
T = Trace of Precipitation, MM = Missing Value Source: NWS Daily Summary

Daily Weather History Graph

Daily Weather History Graph

Search for Another Location

Airport:

Trip Planner

Search our weather history database for the weather conditions in past years. The results will help you decide how hot, cold, wet, or windy it might be!

Date:

Astronomy

May. 24, 2013 Rise Set
Actual Time 5:32 AM CDT 8:30 PM CDT
Civil Twilight 4:59 AM CDT 9:04 PM CDT
Nautical Twilight 4:16 AM CDT 9:47 PM CDT
Astronomical Twilight 3:26 AM CDT 10:37 PM CDT
Moon 8:12 PM CDT (5/24) 5:06 AM CDT (5/24)
Length of Visible Light 16h 04m
Length of Day
14h 57m
Full, 100% of the Moon is Illuminated
May 24
Full
May 24
Full
May 31
Last Quarter
Jun 8
New
Jun 16
First Quarter

Hourly Weather History & Observations

Time (CDT) Temp. Windchill Dew Point Humidity Pressure Visibility Wind Dir Wind Speed Gust Speed Precip Events Conditions
12:15 AM 45.7 °F - 41.7 °F 86% 30.30 in 10.0 mi Calm Calm - N/A   Clear
12:35 AM 45.0 °F - 41.2 °F 87% 30.31 in 10.0 mi Calm Calm - N/A   Clear
12:55 AM 44.1 °F - 41.4 °F 90% 30.31 in 10.0 mi Calm Calm - N/A   Clear
1:15 AM 44.6 °F - 41.7 °F 90% 30.31 in 10.0 mi Calm Calm - N/A   Clear
1:35 AM 43.0 °F - 39.9 °F 89% 30.32 in 10.0 mi Calm Calm - N/A   Clear
1:55 AM 43.5 °F - 40.6 °F 90% 30.32 in 10.0 mi Calm Calm - N/A   Clear
2:15 AM 43.5 °F - 41.2 °F 91% 30.33 in 10.0 mi Calm Calm - N/A   Clear
2:35 AM 43.2 °F - 41.0 °F 92% 30.34 in 10.0 mi Calm Calm - N/A   Clear
2:55 AM 42.6 °F - 40.3 °F 91% 30.34 in 10.0 mi Calm Calm - N/A   Clear
3:15 AM 42.4 °F - 40.5 °F 93% 30.34 in 10.0 mi Calm Calm - N/A   Clear
3:35 AM 42.4 °F 40.7 °F 40.8 °F 94% 30.34 in 10.0 mi East 3.5 mph - N/A   Clear
3:55 AM 42.3 °F - 40.6 °F 94% 30.35 in 10.0 mi Calm Calm - N/A   Clear
4:15 AM 42.3 °F - 40.3 °F 93% 30.36 in 10.0 mi Calm Calm - N/A   Clear
4:35 AM 42.3 °F - 39.6 °F 90% 30.37 in 10.0 mi Calm Calm - N/A   Clear
4:55 AM 41.5 °F - 39.2 °F 91% 30.37 in 10.0 mi Calm Calm - N/A   Clear
5:15 AM 41.2 °F - 38.8 °F 91% 30.38 in 10.0 mi Calm Calm - N/A   Clear
5:35 AM 40.8 °F - 38.8 °F 93% 30.39 in 10.0 mi Calm Calm - N/A   Clear
5:55 AM 41.0 °F 39.0 °F 39.2 °F 93% 30.40 in 10.0 mi East 3.5 mph - N/A   Clear
6:15 AM 42.1 °F 38.4 °F 39.6 °F 91% 30.41 in 10.0 mi East 5.8 mph - N/A   Clear
6:35 AM 43.0 °F 40.3 °F 39.6 °F 88% 30.41 in 10.0 mi East 4.6 mph - N/A   Clear
6:55 AM 43.7 °F 40.3 °F 39.2 °F 84% 30.42 in 10.0 mi East 5.8 mph - N/A   Clear
7:15 AM 45.0 °F 41.2 °F 39.0 °F 80% 30.42 in 10.0 mi East 6.9 mph - N/A   Clear
7:35 AM 46.0 °F 43.1 °F 39.0 °F 76% 30.43 in 10.0 mi ESE 5.8 mph - N/A   Clear
7:55 AM 47.3 °F - 38.3 °F 71% 30.43 in 10.0 mi East 5.8 mph - N/A   Clear
8:15 AM 48.6 °F - 37.2 °F 65% 30.43 in 10.0 mi East 8.1 mph - N/A   Clear
8:35 AM 49.3 °F - 36.3 °F 61% 30.44 in 10.0 mi ESE 5.8 mph - N/A   Clear
8:55 AM 50.2 °F - 36.9 °F 60% 30.44 in 10.0 mi East 8.1 mph - N/A   Clear
9:15 AM 50.9 °F - 36.0 °F 57% 30.44 in 10.0 mi ESE 6.9 mph - N/A   Clear
9:35 AM 51.6 °F - 36.5 °F 56% 30.44 in 10.0 mi ESE 6.9 mph - N/A   Clear
9:55 AM 52.3 °F - 36.7 °F 55% 30.43 in 10.0 mi ESE 6.9 mph - N/A   Clear
10:15 AM 53.8 °F - 37.6 °F 54% 30.43 in 10.0 mi ESE 4.6 mph - N/A   Clear
10:35 AM 54.1 °F - 37.8 °F 54% 30.42 in 10.0 mi East 5.8 mph - N/A   Clear
10:55 AM 55.4 °F - 37.9 °F 52% 30.42 in 10.0 mi SE 4.6 mph - N/A   Clear
11:15 AM 56.3 °F - 38.7 °F 52% 30.42 in 10.0 mi SE 5.8 mph - N/A   Clear
11:35 AM 57.0 °F - 39.9 °F 53% 30.41 in 10.0 mi Calm Calm - N/A   Clear
11:55 AM 57.7 °F - 39.4 °F 50% 30.41 in 10.0 mi SSE 5.8 mph - N/A   Clear
12:15 PM 58.3 °F - 39.6 °F 50% 30.41 in 10.0 mi SE 4.6 mph - N/A   Clear
12:35 PM 58.8 °F - 40.1 °F 50% 30.39 in 10.0 mi East 4.6 mph - N/A   Clear
12:55 PM 59.7 °F - 39.6 °F 47% 30.39 in 10.0 mi East 3.5 mph - N/A   Clear
1:15 PM 60.6 °F - 39.7 °F 46% 30.38 in 10.0 mi SSE 5.8 mph - N/A   Clear
1:35 PM 61.7 °F - 37.6 °F 41% 30.37 in 10.0 mi East 5.8 mph - N/A   Clear
1:55 PM 62.1 °F - 38.8 °F 42% 30.36 in 10.0 mi ESE 5.8 mph - N/A   Clear
2:15 PM 61.9 °F - 37.8 °F 41% 30.34 in 10.0 mi NE 4.6 mph - N/A   Clear
2:35 PM 63.3 °F - 38.5 °F 40% 30.34 in 10.0 mi East 5.8 mph - N/A   Clear
2:55 PM 63.0 °F - 36.9 °F 38% 30.33 in 10.0 mi East 9.2 mph - N/A   Clear
3:15 PM 63.9 °F - 36.0 °F 36% 30.32 in 10.0 mi ESE 8.1 mph - N/A   Clear
3:35 PM 64.4 °F - 37.0 °F 36% 30.32 in 10.0 mi ESE 4.6 mph - N/A   Clear
3:55 PM 64.9 °F - 38.8 °F 38% 30.31 in 10.0 mi East 9.2 mph - N/A   Clear
4:15 PM 65.7 °F - 37.9 °F 36% 30.31 in 10.0 mi SE 8.1 mph - N/A   Clear
4:35 PM 65.7 °F - 37.2 °F 35% 30.31 in 10.0 mi SE 4.6 mph - N/A   Clear
4:55 PM 64.9 °F - 36.0 °F 34% 30.29 in 10.0 mi SE 5.8 mph - N/A   Clear
5:15 PM 65.5 °F - 36.9 °F 35% 30.28 in 10.0 mi SSE 3.5 mph - N/A   Clear
5:35 PM 64.4 °F - 33.1 °F 31% 30.28 in 10.0 mi SE 6.9 mph - N/A   Clear
5:55 PM 64.9 °F - 33.8 °F 31% 30.27 in 10.0 mi SE 5.8 mph - N/A   Clear
6:15 PM 64.6 °F - 34.7 °F 33% 30.27 in 10.0 mi SE 5.8 mph - N/A   Clear
6:35 PM 63.5 °F - 35.6 °F 35% 30.27 in 10.0 mi ESE 4.6 mph - N/A   Clear
6:55 PM 63.7 °F - 37.6 °F 38% 30.27 in 10.0 mi ESE 5.8 mph - N/A   Clear
7:15 PM 63.3 °F - 39.7 °F 42% 30.29 in 10.0 mi East 3.5 mph - N/A   Clear
7:35 PM 62.8 °F - 39.7 °F 43% 30.29 in 10.0 mi East 4.6 mph - N/A   Clear
7:55 PM 61.7 °F - 42.1 °F 49% 30.31 in 10.0 mi Calm Calm - N/A   Clear
8:15 PM 60.8 °F - 41.5 °F 49% 30.31 in 10.0 mi NE 3.5 mph - N/A   Clear
8:35 PM 59.7 °F - 42.6 °F 53% 30.30 in 10.0 mi East 4.6 mph - N/A   Clear
8:55 PM 58.1 °F - 42.4 °F 56% 30.30 in 10.0 mi ESE 3.5 mph - N/A   Clear
9:15 PM 57.7 °F - 44.8 °F 62% 30.31 in 10.0 mi ESE 4.6 mph - N/A   Clear
9:35 PM 57.2 °F - 45.9 °F 66% 30.31 in 10.0 mi East 6.9 mph - N/A   Clear
9:55 PM 56.5 °F - 45.7 °F 67% 30.29 in 10.0 mi East 6.9 mph - N/A   Clear
10:15 PM 56.5 °F - 45.5 °F 67% 30.29 in 10.0 mi East 6.9 mph - N/A   Clear
10:35 PM 56.5 °F - 45.9 °F 68% 30.30 in 10.0 mi East 6.9 mph - N/A   Clear
10:55 PM 57.0 °F - 44.8 °F 64% 30.30 in 10.0 mi West 3.5 mph - N/A   Mostly Cloudy
11:15 PM 56.8 °F - 46.0 °F 67% 30.27 in 10.0 mi ESE 5.8 mph - N/A Rain Light Rain
11:35 PM 55.6 °F - 46.2 °F 71% 30.26 in 10.0 mi East 8.1 mph - 0.01 in Rain Light Rain
11:55 PM 54.9 °F - 46.9 °F 75% 30.26 in 10.0 mi Calm Calm - 0.01 in   Light Drizzle